sensor_id;sensor_type;location;lat;lon;timestamp;temperature;humidity
23783;DHT22;12071;50.850;4.446;2022-11-20T00:01:48;5.60;14.90
23783;DHT22;12071;50.850;4.446;2022-11-20T00:04:14;5.50;2.10
23783;DHT22;12071;50.850;4.446;2022-11-20T00:06:40;5.40;1.00
23783;DHT22;12071;50.850;4.446;2022-11-20T00:09:05;5.40;1.70
23783;DHT22;12071;50.850;4.446;2022-11-20T00:11:31;5.30;1.00
23783;DHT22;12071;50.850;4.446;2022-11-20T00:14:00;5.50;1.00
23783;DHT22;12071;50.850;4.446;2022-11-20T00:16:28;5.30;1.00
23783;DHT22;12071;50.850;4.446;2022-11-20T00:18:54;5.40;1.00
23783;DHT22;12071;50.850;4.446;2022-11-20T00:21:23;5.10;1.00
23783;DHT22;12071;50.850;4.446;2022-11-20T00:23:49;5.10;4.40
23783;DHT22;12071;50.850;4.446;2022-11-20T00:26:17;5.20;4.80
23783;DHT22;12071;50.850;4.446;2022-11-20T00:28:48;5.40;1.00
23783;DHT22;12071;50.850;4.446;2022-11-20T00:31:15;5.50;1.00
23783;DHT22;12071;50.850;4.446;2022-11-20T00:33:42;5.60;1.00
23783;DHT22;12071;50.850;4.446;2022-11-20T00:36:10;5.60;1.00
23783;DHT22;12071;50.850;4.446;2022-11-20T00:38:36;5.60;1.00
23783;DHT22;12071;50.850;4.446;2022-11-20T00:41:08;5.30;1.00
23783;DHT22;12071;50.850;4.446;2022-11-20T00:43:34;5.00;1.00
23783;DHT22;12071;50.850;4.446;2022-11-20T00:46:02;5.00;2.80
23783;DHT22;12071;50.850;4.446;2022-11-20T00:48:28;5.10;10.80
23783;DHT22;12071;50.850;4.446;2022-11-20T00:50:54;5.10;11.30
23783;DHT22;12071;50.850;4.446;2022-11-20T00:53:20;5.10;11.80
23783;DHT22;12071;50.850;4.446;2022-11-20T00:56:00;5.30;15.00
23783;DHT22;12071;50.850;4.446;2022-11-20T00:58:30;5.50;5.10
23783;DHT22;12071;50.850;4.446;2022-11-20T01:01:01;5.80;1.00
23783;DHT22;12071;50.850;4.446;2022-11-20T01:03:27;5.90;1.00
23783;DHT22;12071;50.850;4.446;2022-11-20T01:05:53;5.80;1.00
23783;DHT22;12071;50.850;4.446;2022-11-20T01:08:18;6.00;1.00
23783;DHT22;12071;50.850;4.446;2022-11-20T01:10:44;6.10;1.00
23783;DHT22;12071;50.850;4.446;2022-11-20T01:13:10;6.00;1.00
23783;DHT22;12071;50.850;4.446;2022-11-20T01:15:54;5.80;1.00
23783;DHT22;12071;50.850;4.446;2022-11-20T01:18:19;5.80;1.00
23783;DHT22;12071;50.850;4.446;2022-11-20T01:20:45;5.70;1.00
23783;DHT22;12071;50.850;4.446;2022-11-20T01:23:10;5.70;1.00
23783;DHT22;12071;50.850;4.446;2022-11-20T01:25:36;5.20;1.00
23783;DHT22;12071;50.850;4.446;2022-11-20T01:28:02;5.10;1.00
23783;DHT22;12071;50.850;4.446;2022-11-20T01:30:28;5.10;1.00
23783;DHT22;12071;50.850;4.446;2022-11-20T01:32:55;5.10;1.00
23783;DHT22;12071;50.850;4.446;2022-11-20T01:35:20;5.40;6.40
23783;DHT22;12071;50.850;4.446;2022-11-20T01:37:46;5.50;1.00
23783;DHT22;12071;50.850;4.446;2022-11-20T01:40:12;5.40;1.00
23783;DHT22;12071;50.850;4.446;2022-11-20T01:42:37;5.40;1.00
23783;DHT22;12071;50.850;4.446;2022-11-20T01:48:10;6.00;1.00
23783;DHT22;12071;50.850;4.446;2022-11-20T01:50:36;5.90;1.00
23783;DHT22;12071;50.850;4.446;2022-11-20T01:53:05;5.60;1.00
23783;DHT22;12071;50.850;4.446;2022-11-20T01:55:38;5.30;1.00
23783;DHT22;12071;50.850;4.446;2022-11-20T01:58:06;5.20;1.00
23783;DHT22;12071;50.850;4.446;2022-11-20T02:00:32;5.20;1.00
23783;DHT22;12071;50.850;4.446;2022-11-20T02:03:09;5.20;3.90
23783;DHT22;12071;50.850;4.446;2022-11-20T02:06:08;5.50;2.20
23783;DHT22;12071;50.850;4.446;2022-11-20T02:08:35;5.40;1.00
23783;DHT22;12071;50.850;4.446;2022-11-20T02:11:01;5.40;1.00
23783;DHT22;12071;50.850;4.446;2022-11-20T02:13:27;5.20;1.00
23783;DHT22;12071;50.850;4.446;2022-11-20T02:16:11;5.30;1.30
23783;DHT22;12071;50.850;4.446;2022-11-20T02:18:39;5.30;1.70
23783;DHT22;12071;50.850;4.446;2022-11-20T02:24:11;5.20;1.00
23783;DHT22;12071;50.850;4.446;2022-11-20T02:26:59;5.50;5.10
23783;DHT22;12071;50.850;4.446;2022-11-20T02:30:23;5.70;1.00
23783;DHT22;12071;50.850;4.446;2022-11-20T02:32:32;5.80;1.00
23783;DHT22;12071;50.850;4.446;2022-11-20T02:35:09;5.80;1.00
23783;DHT22;12071;50.850;4.446;2022-11-20T02:37:38;5.60;1.00
23783;DHT22;12071;50.850;4.446;2022-11-20T02:40:05;5.70;1.00
23783;DHT22;12071;50.850;4.446;2022-11-20T02:42:31;6.10;1.00
23783;DHT22;12071;50.850;4.446;2022-11-20T02:44:56;6.30;1.00
23783;DHT22;12071;50.850;4.446;2022-11-20T02:47:22;6.10;1.00
23783;DHT22;12071;50.850;4.446;2022-11-20T02:49:47;6.30;1.00
23783;DHT22;12071;50.850;4.446;2022-11-20T02:52:13;6.30;1.00
23783;DHT22;12071;50.850;4.446;2022-11-20T02:54:39;6.40;1.00
23783;DHT22;12071;50.850;4.446;2022-11-20T02:57:04;6.30;1.00
23783;DHT22;12071;50.850;4.446;2022-11-20T02:59:30;6.20;1.00
23783;DHT22;12071;50.850;4.446;2022-11-20T03:01:55;6.20;1.00
23783;DHT22;12071;50.850;4.446;2022-11-20T03:04:21;6.30;1.00
23783;DHT22;12071;50.850;4.446;2022-11-20T03:06:46;6.40;1.00
23783;DHT22;12071;50.850;4.446;2022-11-20T03:09:12;6.40;1.00
23783;DHT22;12071;50.850;4.446;2022-11-20T03:11:38;6.30;1.00
23783;DHT22;12071;50.850;4.446;2022-11-20T03:14:04;6.00;1.00
23783;DHT22;12071;50.850;4.446;2022-11-20T03:16:31;5.60;1.00
23783;DHT22;12071;50.850;4.446;2022-11-20T03:18:57;5.20;1.00
23783;DHT22;12071;50.850;4.446;2022-11-20T03:21:23;5.10;2.00
23783;DHT22;12071;50.850;4.446;2022-11-20T03:23:49;5.00;7.60
23783;DHT22;12071;50.850;4.446;2022-11-20T03:26:17;4.90;7.90
23783;DHT22;12071;50.850;4.446;2022-11-20T03:28:49;5.10;16.90
23783;DHT22;12071;50.850;4.446;2022-11-20T03:31:16;5.20;14.80
23783;DHT22;12071;50.850;4.446;2022-11-20T03:33:42;5.10;13.00
23783;DHT22;12071;50.850;4.446;2022-11-20T03:36:10;5.30;10.80
23783;DHT22;12071;50.850;4.446;2022-11-20T03:38:37;5.50;3.40
23783;DHT22;12071;50.850;4.446;2022-11-20T03:41:05;5.70;1.00
23783;DHT22;12071;50.850;4.446;2022-11-20T03:43:30;5.60;1.00
23783;DHT22;12071;50.850;4.446;2022-11-20T03:45:56;5.30;1.00
23783;DHT22;12071;50.850;4.446;2022-11-20T03:48:22;4.90;1.00
23783;DHT22;12071;50.850;4.446;2022-11-20T03:50:47;5.00;1.00
23783;DHT22;12071;50.850;4.446;2022-11-20T03:53:16;5.20;1.00
23783;DHT22;12071;50.850;4.446;2022-11-20T03:55:42;5.20;1.00
23783;DHT22;12071;50.850;4.446;2022-11-20T03:58:09;5.00;1.00
23783;DHT22;12071;50.850;4.446;2022-11-20T04:00:35;4.90;1.00
23783;DHT22;12071;50.850;4.446;2022-11-20T04:03:01;5.10;1.00
23783;DHT22;12071;50.850;4.446;2022-11-20T04:05:27;5.30;1.00
23783;DHT22;12071;50.850;4.446;2022-11-20T04:07:53;5.60;1.00
23783;DHT22;12071;50.850;4.446;2022-11-20T04:10:18;5.70;1.00
23783;DHT22;12071;50.850;4.446;2022-11-20T04:12:44;5.60;1.00
23783;DHT22;12071;50.850;4.446;2022-11-20T04:15:09;5.50;1.00
23783;DHT22;12071;50.850;4.446;2022-11-20T04:17:35;5.30;1.00
23783;DHT22;12071;50.850;4.446;2022-11-20T04:20:01;5.60;1.00
23783;DHT22;12071;50.850;4.446;2022-11-20T04:22:27;5.90;1.00
23783;DHT22;12071;50.850;4.446;2022-11-20T04:24:52;6.10;1.00
23783;DHT22;12071;50.850;4.446;2022-11-20T04:27:18;6.30;1.00
23783;DHT22;12071;50.850;4.446;2022-11-20T04:29:44;6.10;1.00
23783;DHT22;12071;50.850;4.446;2022-11-20T04:32:09;6.30;1.00
23783;DHT22;12071;50.850;4.446;2022-11-20T04:34:35;6.10;1.00
23783;DHT22;12071;50.850;4.446;2022-11-20T04:37:01;6.00;1.00
23783;DHT22;12071;50.850;4.446;2022-11-20T04:39:26;5.70;1.00
23783;DHT22;12071;50.850;4.446;2022-11-20T04:41:52;5.80;1.00
23783;DHT22;12071;50.850;4.446;2022-11-20T04:44:37;6.10;1.00
23783;DHT22;12071;50.850;4.446;2022-11-20T04:47:03;6.20;1.00
23783;DHT22;12071;50.850;4.446;2022-11-20T04:49:28;6.20;1.00
23783;DHT22;12071;50.850;4.446;2022-11-20T04:51:54;6.30;1.00
23783;DHT22;12071;50.850;4.446;2022-11-20T04:54:20;6.30;1.00
23783;DHT22;12071;50.850;4.446;2022-11-20T04:56:47;6.30;1.00
23783;DHT22;12071;50.850;4.446;2022-11-20T04:59:13;6.30;1.00
23783;DHT22;12071;50.850;4.446;2022-11-20T05:01:39;6.30;1.00
23783;DHT22;12071;50.850;4.446;2022-11-20T05:04:04;6.50;1.00
23783;DHT22;12071;50.850;4.446;2022-11-20T05:06:31;6.60;1.00
23783;DHT22;12071;50.850;4.446;2022-11-20T05:08:56;6.70;1.00
23783;DHT22;12071;50.850;4.446;2022-11-20T05:11:22;6.50;1.00
23783;DHT22;12071;50.850;4.446;2022-11-20T05:13:48;6.70;1.00
23783;DHT22;12071;50.850;4.446;2022-11-20T05:16:16;6.80;1.00
23783;DHT22;12071;50.850;4.446;2022-11-20T05:18:43;6.80;1.00
23783;DHT22;12071;50.850;4.446;2022-11-20T05:21:10;7.00;1.00
23783;DHT22;12071;50.850;4.446;2022-11-20T05:23:36;6.80;1.00
23783;DHT22;12071;50.850;4.446;2022-11-20T05:26:02;6.70;1.00
23783;DHT22;12071;50.850;4.446;2022-11-20T05:28:29;6.40;1.00
23783;DHT22;12071;50.850;4.446;2022-11-20T05:30:55;6.10;1.00
23783;DHT22;12071;50.850;4.446;2022-11-20T05:33:21;6.30;1.00
23783;DHT22;12071;50.850;4.446;2022-11-20T05:35:47;6.50;1.00
23783;DHT22;12071;50.850;4.446;2022-11-20T05:38:13;6.50;1.00
23783;DHT22;12071;50.850;4.446;2022-11-20T05:40:39;6.40;1.00
23783;DHT22;12071;50.850;4.446;2022-11-20T05:43:05;6.60;1.00
23783;DHT22;12071;50.850;4.446;2022-11-20T05:45:30;6.90;1.00
23783;DHT22;12071;50.850;4.446;2022-11-20T05:47:59;6.90;1.00
23783;DHT22;12071;50.850;4.446;2022-11-20T05:50:28;6.80;1.00
23783;DHT22;12071;50.850;4.446;2022-11-20T05:52:54;6.80;1.00
23783;DHT22;12071;50.850;4.446;2022-11-20T05:55:20;6.60;1.00
23783;DHT22;12071;50.850;4.446;2022-11-20T05:57:45;6.60;1.00
23783;DHT22;12071;50.850;4.446;2022-11-20T06:00:11;6.40;1.00
23783;DHT22;12071;50.850;4.446;2022-11-20T06:02:37;6.50;1.00
23783;DHT22;12071;50.850;4.446;2022-11-20T06:05:03;6.50;1.00
23783;DHT22;12071;50.850;4.446;2022-11-20T06:07:29;6.30;1.00
23783;DHT22;12071;50.850;4.446;2022-11-20T06:09:54;6.40;1.00
23783;DHT22;12071;50.850;4.446;2022-11-20T06:12:20;6.30;1.00
23783;DHT22;12071;50.850;4.446;2022-11-20T06:14:45;6.20;1.00
23783;DHT22;12071;50.850;4.446;2022-11-20T06:17:11;6.30;1.00
23783;DHT22;12071;50.850;4.446;2022-11-20T06:19:36;6.40;1.00
23783;DHT22;12071;50.850;4.446;2022-11-20T06:22:02;6.50;1.00
23783;DHT22;12071;50.850;4.446;2022-11-20T06:24:27;6.50;1.00
23783;DHT22;12071;50.850;4.446;2022-11-20T06:26:53;6.60;1.00
23783;DHT22;12071;50.850;4.446;2022-11-20T06:29:19;6.70;1.00
23783;DHT22;12071;50.850;4.446;2022-11-20T06:31:44;6.70;1.00
23783;DHT22;12071;50.850;4.446;2022-11-20T06:34:11;6.40;1.00
23783;DHT22;12071;50.850;4.446;2022-11-20T06:36:37;6.40;1.00
23783;DHT22;12071;50.850;4.446;2022-11-20T06:39:03;6.50;1.00
23783;DHT22;12071;50.850;4.446;2022-11-20T06:41:29;6.50;1.00
23783;DHT22;12071;50.850;4.446;2022-11-20T06:43:54;6.50;1.00
23783;DHT22;12071;50.850;4.446;2022-11-20T06:46:20;6.60;1.00
23783;DHT22;12071;50.850;4.446;2022-11-20T06:48:49;6.50;1.00
23783;DHT22;12071;50.850;4.446;2022-11-20T06:51:16;6.60;1.00
23783;DHT22;12071;50.850;4.446;2022-11-20T06:53:41;6.40;1.00
23783;DHT22;12071;50.850;4.446;2022-11-20T06:56:07;6.30;1.00
23783;DHT22;12071;50.850;4.446;2022-11-20T06:58:34;6.50;1.00
23783;DHT22;12071;50.850;4.446;2022-11-20T07:01:01;6.60;1.00
23783;DHT22;12071;50.850;4.446;2022-11-20T07:03:27;6.60;1.00
23783;DHT22;12071;50.850;4.446;2022-11-20T07:05:57;6.80;1.00
23783;DHT22;12071;50.850;4.446;2022-11-20T07:08:23;6.60;1.00
23783;DHT22;12071;50.850;4.446;2022-11-20T07:10:50;6.60;1.00
23783;DHT22;12071;50.850;4.446;2022-11-20T07:13:15;6.70;1.00
23783;DHT22;12071;50.850;4.446;2022-11-20T07:15:41;6.70;1.00
23783;DHT22;12071;50.850;4.446;2022-11-20T07:18:07;6.60;1.00
23783;DHT22;12071;50.850;4.446;2022-11-20T07:20:33;6.70;1.00
23783;DHT22;12071;50.850;4.446;2022-11-20T07:22:58;6.80;1.00
23783;DHT22;12071;50.850;4.446;2022-11-20T07:25:25;6.80;1.00
23783;DHT22;12071;50.850;4.446;2022-11-20T07:27:51;6.90;1.00
23783;DHT22;12071;50.850;4.446;2022-11-20T07:30:16;6.90;1.00
23783;DHT22;12071;50.850;4.446;2022-11-20T07:32:45;6.70;1.00
23783;DHT22;12071;50.850;4.446;2022-11-20T07:35:11;6.70;1.00
23783;DHT22;12071;50.850;4.446;2022-11-20T07:37:37;6.70;1.00
23783;DHT22;12071;50.850;4.446;2022-11-20T07:40:03;6.80;1.00
23783;DHT22;12071;50.850;4.446;2022-11-20T07:42:28;6.60;1.00
23783;DHT22;12071;50.850;4.446;2022-11-20T07:44:54;6.80;4.50
23783;DHT22;12071;50.850;4.446;2022-11-20T07:47:20;7.10;1.00
23783;DHT22;12071;50.850;4.446;2022-11-20T07:49:46;7.00;1.00
23783;DHT22;12071;50.850;4.446;2022-11-20T07:52:11;7.20;1.00
23783;DHT22;12071;50.850;4.446;2022-11-20T07:54:37;7.20;1.00
23783;DHT22;12071;50.850;4.446;2022-11-20T07:57:03;7.20;1.00
23783;DHT22;12071;50.850;4.446;2022-11-20T07:59:28;7.30;1.00
23783;DHT22;12071;50.850;4.446;2022-11-20T08:01:54;7.30;1.00
23783;DHT22;12071;50.850;4.446;2022-11-20T08:04:20;7.10;1.00
23783;DHT22;12071;50.850;4.446;2022-11-20T08:06:46;7.30;1.00
23783;DHT22;12071;50.850;4.446;2022-11-20T08:09:11;7.30;1.00
23783;DHT22;12071;50.850;4.446;2022-11-20T08:11:37;7.30;1.00
23783;DHT22;12071;50.850;4.446;2022-11-20T08:14:21;7.30;1.00
23783;DHT22;12071;50.850;4.446;2022-11-20T08:16:48;7.10;1.00
23783;DHT22;12071;50.850;4.446;2022-11-20T08:19:15;7.20;1.00
23783;DHT22;12071;50.850;4.446;2022-11-20T08:21:42;7.40;1.00
23783;DHT22;12071;50.850;4.446;2022-11-20T08:24:09;7.50;1.00
23783;DHT22;12071;50.850;4.446;2022-11-20T08:26:36;7.80;1.00
23783;DHT22;12071;50.850;4.446;2022-11-20T08:29:03;7.70;1.00
23783;DHT22;12071;50.850;4.446;2022-11-20T08:31:29;7.80;1.00
23783;DHT22;12071;50.850;4.446;2022-11-20T08:33:55;7.80;1.00
23783;DHT22;12071;50.850;4.446;2022-11-20T08:36:22;7.80;1.00
23783;DHT22;12071;50.850;4.446;2022-11-20T08:38:49;7.70;1.00
23783;DHT22;12071;50.850;4.446;2022-11-20T08:41:15;7.70;1.00
23783;DHT22;12071;50.850;4.446;2022-11-20T08:44:01;7.50;1.00
23783;DHT22;12071;50.850;4.446;2022-11-20T08:46:38;7.70;1.00
23783;DHT22;12071;50.850;4.446;2022-11-20T08:49:05;7.60;6.00
23783;DHT22;12071;50.850;4.446;2022-11-20T08:51:31;7.80;2.40
23783;DHT22;12071;50.850;4.446;2022-11-20T08:53:57;7.60;1.00
23783;DHT22;12071;50.850;4.446;2022-11-20T08:56:23;7.80;7.00
23783;DHT22;12071;50.850;4.446;2022-11-20T08:58:50;7.80;1.00
23783;DHT22;12071;50.850;4.446;2022-11-20T09:01:16;7.80;1.90
23783;DHT22;12071;50.850;4.446;2022-11-20T09:03:42;7.90;2.70
23783;DHT22;12071;50.850;4.446;2022-11-20T09:06:08;7.90;1.60
23783;DHT22;12071;50.850;4.446;2022-11-20T09:08:34;7.90;3.60
23783;DHT22;12071;50.850;4.446;2022-11-20T09:11:01;8.10;4.30
23783;DHT22;12071;50.850;4.446;2022-11-20T09:13:28;8.10;1.00
23783;DHT22;12071;50.850;4.446;2022-11-20T09:16:07;8.10;1.00
23783;DHT22;12071;50.850;4.446;2022-11-20T09:18:34;8.20;1.00
23783;DHT22;12071;50.850;4.446;2022-11-20T09:21:06;8.40;1.00
23783;DHT22;12071;50.850;4.446;2022-11-20T09:23:34;8.20;1.00
23783;DHT22;12071;50.850;4.446;2022-11-20T09:26:08;8.10;1.00
23783;DHT22;12071;50.850;4.446;2022-11-20T09:28:34;8.20;7.70
23783;DHT22;12071;50.850;4.446;2022-11-20T09:31:00;8.30;9.50
23783;DHT22;12071;50.850;4.446;2022-11-20T09:33:26;8.50;1.00
23783;DHT22;12071;50.850;4.446;2022-11-20T09:35:51;8.40;5.20
23783;DHT22;12071;50.850;4.446;2022-11-20T09:38:17;8.50;5.00
23783;DHT22;12071;50.850;4.446;2022-11-20T09:43:31;8.40;4.80
23783;DHT22;12071;50.850;4.446;2022-11-20T09:46:17;8.50;6.40
23783;DHT22;12071;50.850;4.446;2022-11-20T09:51:39;8.70;1.00
23783;DHT22;12071;50.850;4.446;2022-11-20T09:54:21;8.70;3.60
23783;DHT22;12071;50.850;4.446;2022-11-20T09:56:54;8.90;4.20
23783;DHT22;12071;50.850;4.446;2022-11-20T10:01:53;9.20;1.00
23783;DHT22;12071;50.850;4.446;2022-11-20T10:04:20;9.20;1.00
23783;DHT22;12071;50.850;4.446;2022-11-20T10:07:07;9.10;1.00
23783;DHT22;12071;50.850;4.446;2022-11-20T10:09:38;9.10;1.00
23783;DHT22;12071;50.850;4.446;2022-11-20T10:12:13;9.00;1.00
23783;DHT22;12071;50.850;4.446;2022-11-20T10:25:38;9.70;1.00
23783;DHT22;12071;50.850;4.446;2022-11-20T10:28:27;9.50;1.00
23783;DHT22;12071;50.850;4.446;2022-11-20T10:31:00;9.60;1.00
23783;DHT22;12071;50.850;4.446;2022-11-20T10:33:31;9.60;1.00
23783;DHT22;12071;50.850;4.446;2022-11-20T10:36:15;9.80;1.00
23783;DHT22;12071;50.850;4.446;2022-11-20T10:38:54;10.00;1.00
23783;DHT22;12071;50.850;4.446;2022-11-20T10:41:40;9.90;1.00
23783;DHT22;12071;50.850;4.446;2022-11-20T10:44:19;10.10;1.00
23783;DHT22;12071;50.850;4.446;2022-11-20T10:47:05;9.90;1.00
23783;DHT22;12071;50.850;4.446;2022-11-20T10:49:34;10.10;1.00
23783;DHT22;12071;50.850;4.446;2022-11-20T10:52:09;10.10;1.00
23783;DHT22;12071;50.850;4.446;2022-11-20T11:00:09;10.00;1.00
23783;DHT22;12071;50.850;4.446;2022-11-20T11:02:47;9.90;1.00
23783;DHT22;12071;50.850;4.446;2022-11-20T11:05:39;9.80;1.00
23783;DHT22;12071;50.850;4.446;2022-11-20T11:08:15;9.80;1.00
23783;DHT22;12071;50.850;4.446;2022-11-20T11:11:03;9.90;1.00
23783;DHT22;12071;50.850;4.446;2022-11-20T11:13:34;10.00;1.00
23783;DHT22;12071;50.850;4.446;2022-11-20T11:16:00;9.90;1.00
23783;DHT22;12071;50.850;4.446;2022-11-20T11:18:29;10.00;1.00
23783;DHT22;12071;50.850;4.446;2022-11-20T11:21:00;10.00;1.00
23783;DHT22;12071;50.850;4.446;2022-11-20T11:26:02;9.90;1.00
23783;DHT22;12071;50.850;4.446;2022-11-20T11:28:29;9.90;1.00
23783;DHT22;12071;50.850;4.446;2022-11-20T11:30:55;9.90;1.00
23783;DHT22;12071;50.850;4.446;2022-11-20T11:33:29;10.00;1.00
23783;DHT22;12071;50.850;4.446;2022-11-20T11:35:59;10.10;1.00
23783;DHT22;12071;50.850;4.446;2022-11-20T11:38:39;10.00;1.00
23783;DHT22;12071;50.850;4.446;2022-11-20T11:41:09;10.10;1.00
23783;DHT22;12071;50.850;4.446;2022-11-20T11:43:38;10.00;1.00
23783;DHT22;12071;50.850;4.446;2022-11-20T11:46:35;10.00;1.00
23783;DHT22;12071;50.850;4.446;2022-11-20T11:54:23;10.20;1.00
23783;DHT22;12071;50.850;4.446;2022-11-20T11:56:49;10.20;1.00
23783;DHT22;12071;50.850;4.446;2022-11-20T11:59:47;10.30;1.00
23783;DHT22;12071;50.850;4.446;2022-11-20T12:13:30;9.90;1.00
23783;DHT22;12071;50.850;4.446;2022-11-20T12:16:02;10.00;1.00
23783;DHT22;12071;50.850;4.446;2022-11-20T12:18:29;9.90;1.00
23783;DHT22;12071;50.850;4.446;2022-11-20T12:23:57;9.90;1.00
23783;DHT22;12071;50.850;4.446;2022-11-20T12:29:18;9.80;1.00
23783;DHT22;12071;50.850;4.446;2022-11-20T12:37:52;9.50;1.00
23783;DHT22;12071;50.850;4.446;2022-11-20T12:40:38;9.60;1.00
23783;DHT22;12071;50.850;4.446;2022-11-20T12:43:21;9.60;1.00
23783;DHT22;12071;50.850;4.446;2022-11-20T13:05:37;9.60;1.00
23783;DHT22;12071;50.850;4.446;2022-11-20T13:08:08;9.80;1.00
23783;DHT22;12071;50.850;4.446;2022-11-20T13:10:46;9.90;1.00
23783;DHT22;12071;50.850;4.446;2022-11-20T13:13:33;9.90;1.00
23783;DHT22;12071;50.850;4.446;2022-11-20T13:16:16;9.90;1.00
23783;DHT22;12071;50.850;4.446;2022-11-20T13:18:43;10.00;1.00
23783;DHT22;12071;50.850;4.446;2022-11-20T13:21:18;9.80;1.00
23783;DHT22;12071;50.850;4.446;2022-11-20T13:23:44;9.80;1.00
23783;DHT22;12071;50.850;4.446;2022-11-20T13:26:19;9.60;1.00
23783;DHT22;12071;50.850;4.446;2022-11-20T13:28:47;9.60;1.00
23783;DHT22;12071;50.850;4.446;2022-11-20T13:31:33;9.50;1.00
23783;DHT22;12071;50.850;4.446;2022-11-20T13:34:03;9.50;1.00
23783;DHT22;12071;50.850;4.446;2022-11-20T13:36:29;9.40;1.00
23783;DHT22;12071;50.850;4.446;2022-11-20T13:38:56;9.40;1.30
23783;DHT22;12071;50.850;4.446;2022-11-20T13:41:36;9.50;1.00
23783;DHT22;12071;50.850;4.446;2022-11-20T13:46:45;9.30;6.90
23783;DHT22;12071;50.850;4.446;2022-11-20T13:49:32;9.30;10.00
23783;DHT22;12071;50.850;4.446;2022-11-20T13:52:38;9.40;10.50
23783;DHT22;12071;50.850;4.446;2022-11-20T14:01:08;9.40;14.30
23783;DHT22;12071;50.850;4.446;2022-11-20T14:03:35;9.40;11.00
23783;DHT22;12071;50.850;4.446;2022-11-20T14:06:04;9.20;13.70
23783;DHT22;12071;50.850;4.446;2022-11-20T14:08:39;9.10;24.50
23783;DHT22;12071;50.850;4.446;2022-11-20T14:13:38;9.20;31.80
23783;DHT22;12071;50.850;4.446;2022-11-20T14:16:03;9.20;26.50
23783;DHT22;12071;50.850;4.446;2022-11-20T14:18:29;9.20;27.00
23783;DHT22;12071;50.850;4.446;2022-11-20T14:20:54;9.00;32.20
23783;DHT22;12071;50.850;4.446;2022-11-20T14:23:28;9.00;33.90
23783;DHT22;12071;50.850;4.446;2022-11-20T14:25:54;9.00;33.80
23783;DHT22;12071;50.850;4.446;2022-11-20T14:28:28;9.00;33.10
23783;DHT22;12071;50.850;4.446;2022-11-20T14:30:55;8.90;38.40
23783;DHT22;12071;50.850;4.446;2022-11-20T14:33:22;8.90;45.60
23783;DHT22;12071;50.850;4.446;2022-11-20T14:35:57;8.80;47.90
23783;DHT22;12071;50.850;4.446;2022-11-20T14:38:28;9.00;51.40
23783;DHT22;12071;50.850;4.446;2022-11-20T14:40:54;8.90;48.00
23783;DHT22;12071;50.850;4.446;2022-11-20T14:43:30;9.00;49.80
23783;DHT22;12071;50.850;4.446;2022-11-20T14:46:05;9.00;49.30
23783;DHT22;12071;50.850;4.446;2022-11-20T14:48:45;9.00;51.70
23783;DHT22;12071;50.850;4.446;2022-11-20T14:51:25;8.90;51.70
23783;DHT22;12071;50.850;4.446;2022-11-20T14:53:52;8.90;55.70
23783;DHT22;12071;50.850;4.446;2022-11-20T14:56:22;8.90;59.10
23783;DHT22;12071;50.850;4.446;2022-11-20T14:58:58;8.80;63.60
23783;DHT22;12071;50.850;4.446;2022-11-20T15:01:29;8.90;70.20
23783;DHT22;12071;50.850;4.446;2022-11-20T15:04:10;8.80;75.40
23783;DHT22;12071;50.850;4.446;2022-11-20T15:06:36;8.80;77.50
23783;DHT22;12071;50.850;4.446;2022-11-20T15:09:04;8.80;79.10
23783;DHT22;12071;50.850;4.446;2022-11-20T15:11:32;8.90;79.10
23783;DHT22;12071;50.850;4.446;2022-11-20T15:14:03;8.90;77.30
23783;DHT22;12071;50.850;4.446;2022-11-20T15:16:30;9.00;77.30
23783;DHT22;12071;50.850;4.446;2022-11-20T15:18:56;9.00;75.50
23783;DHT22;12071;50.850;4.446;2022-11-20T15:21:22;8.90;75.10
23783;DHT22;12071;50.850;4.446;2022-11-20T15:23:48;9.00;76.00
23783;DHT22;12071;50.850;4.446;2022-11-20T15:26:24;9.00;77.10
23783;DHT22;12071;50.850;4.446;2022-11-20T15:28:50;9.00;74.90
23783;DHT22;12071;50.850;4.446;2022-11-20T15:31:19;8.90;78.10
23783;DHT22;12071;50.850;4.446;2022-11-20T15:33:45;9.00;79.30
23783;DHT22;12071;50.850;4.446;2022-11-20T15:36:11;9.00;78.40
23783;DHT22;12071;50.850;4.446;2022-11-20T15:38:37;9.00;77.40
23783;DHT22;12071;50.850;4.446;2022-11-20T15:41:03;9.00;81.50
23783;DHT22;12071;50.850;4.446;2022-11-20T15:43:29;9.00;78.70
23783;DHT22;12071;50.850;4.446;2022-11-20T15:46:03;9.20;81.60
23783;DHT22;12071;50.850;4.446;2022-11-20T15:48:41;9.10;77.50
23783;DHT22;12071;50.850;4.446;2022-11-20T15:53:37;9.30;75.90
23783;DHT22;12071;50.850;4.446;2022-11-20T15:56:03;9.40;71.70
23783;DHT22;12071;50.850;4.446;2022-11-20T15:58:29;9.20;68.90
23783;DHT22;12071;50.850;4.446;2022-11-20T16:00:55;9.30;71.40
23783;DHT22;12071;50.850;4.446;2022-11-20T16:03:21;9.40;70.90
23783;DHT22;12071;50.850;4.446;2022-11-20T16:05:47;9.40;67.90
23783;DHT22;12071;50.850;4.446;2022-11-20T16:08:13;9.50;66.80
23783;DHT22;12071;50.850;4.446;2022-11-20T16:10:39;9.40;61.60
23783;DHT22;12071;50.850;4.446;2022-11-20T16:13:11;9.60;60.60
23783;DHT22;12071;50.850;4.446;2022-11-20T16:15:58;9.60;63.10
23783;DHT22;12071;50.850;4.446;2022-11-20T16:18:24;9.70;49.60
23783;DHT22;12071;50.850;4.446;2022-11-20T16:20:54;9.50;49.50
23783;DHT22;12071;50.850;4.446;2022-11-20T16:23:20;9.40;56.00
23783;DHT22;12071;50.850;4.446;2022-11-20T16:25:46;9.30;57.80
23783;DHT22;12071;50.850;4.446;2022-11-20T16:28:12;9.30;59.40
23783;DHT22;12071;50.850;4.446;2022-11-20T16:30:38;9.30;59.80
23783;DHT22;12071;50.850;4.446;2022-11-20T16:33:04;9.30;56.80
23783;DHT22;12071;50.850;4.446;2022-11-20T16:35:34;9.10;58.50
23783;DHT22;12071;50.850;4.446;2022-11-20T16:37:59;9.20;58.20
23783;DHT22;12071;50.850;4.446;2022-11-20T16:40:25;9.20;55.00
23783;DHT22;12071;50.850;4.446;2022-11-20T16:42:51;9.30;52.00
23783;DHT22;12071;50.850;4.446;2022-11-20T16:45:17;9.40;47.50
23783;DHT22;12071;50.850;4.446;2022-11-20T16:47:42;9.30;46.30
23783;DHT22;12071;50.850;4.446;2022-11-20T16:50:08;9.40;47.70
23783;DHT22;12071;50.850;4.446;2022-11-20T16:52:34;9.30;42.80
23783;DHT22;12071;50.850;4.446;2022-11-20T16:55:00;9.40;40.50
23783;DHT22;12071;50.850;4.446;2022-11-20T16:57:27;9.20;37.90
23783;DHT22;12071;50.850;4.446;2022-11-20T16:59:54;9.20;40.60
23783;DHT22;12071;50.850;4.446;2022-11-20T17:02:19;9.20;41.80
23783;DHT22;12071;50.850;4.446;2022-11-20T17:04:45;9.20;43.30
23783;DHT22;12071;50.850;4.446;2022-11-20T17:07:11;9.30;41.50
23783;DHT22;12071;50.850;4.446;2022-11-20T17:09:37;9.30;38.20
23783;DHT22;12071;50.850;4.446;2022-11-20T17:12:03;9.30;35.30
23783;DHT22;12071;50.850;4.446;2022-11-20T17:14:28;9.10;47.50
23783;DHT22;12071;50.850;4.446;2022-11-20T17:16:54;8.60;54.40
23783;DHT22;12071;50.850;4.446;2022-11-20T17:19:19;8.30;73.60
23783;DHT22;12071;50.850;4.446;2022-11-20T17:21:45;8.30;82.30
23783;DHT22;12071;50.850;4.446;2022-11-20T17:24:12;8.30;86.90
23783;DHT22;12071;50.850;4.446;2022-11-20T17:26:39;8.30;91.10
23783;DHT22;12071;50.850;4.446;2022-11-20T17:29:07;8.40;92.60
23783;DHT22;12071;50.850;4.446;2022-11-20T17:31:35;8.40;94.00
23783;DHT22;12071;50.850;4.446;2022-11-20T17:34:04;8.50;95.40
23783;DHT22;12071;50.850;4.446;2022-11-20T17:36:29;8.60;96.20
23783;DHT22;12071;50.850;4.446;2022-11-20T17:38:56;8.60;96.70
23783;DHT22;12071;50.850;4.446;2022-11-20T17:41:23;8.60;97.30
23783;DHT22;12071;50.850;4.446;2022-11-20T17:43:54;8.10;95.10